Time;durP1;ratioP1;P1;durP2;ratioP2;P2;SDS_P1;SDS_P2;PMS_P1;PMS_P2;Temp;Humidity;BMP_temperature;BMP_pressure;BME280_temperature;BME280_humidity;BME280_pressure;Samples;Min_cycle;Max_cycle;Signal;HPM_P1;HPM_P2
2021/12/05 00:23:09;;;;;;;20.90;7.75;;;4.40;99.90;;;;;;4964233;28;20051;-84
2021/12/05 00:25:29;;;;;;;17.70;7.75;;;4.40;99.90;;;;;;4964176;28;20121;-84
2021/12/05 00:28:32;;;;;;;20.33;8.18;;;4.40;99.90;;;;;;4962493;28;20049;-84
2021/12/05 00:47:26;;;;;;;18.48;8.07;;;4.50;99.90;;;;;;4967164;28;20532;-84
2021/12/05 00:50:17;;;;;;;21.88;8.48;;;4.40;99.90;;;;;;4946233;28;20097;-84
2021/12/05 00:55:34;;;;;;;18.70;8.35;;;4.50;99.90;;;;;;4985473;28;20531;-83
2021/12/05 01:11:24;;;;;;;21.63;9.23;;;4.40;99.90;;;;;;4967705;28;20139;-84
2021/12/05 01:16:37;;;;;;;21.60;10.75;;;4.40;99.90;;;;;;4967980;28;20044;-83
2021/12/05 01:19:05;;;;;;;22.25;10.85;;;4.40;99.90;;;;;;4972382;28;20233;-83
2021/12/05 01:21:33;;;;;;;22.42;10.15;;;4.40;99.90;;;;;;4964167;28;20048;-83
2021/12/05 01:24:12;;;;;;;22.58;11.00;;;4.30;99.90;;;;;;4948788;28;20545;-83
2021/12/05 01:26:51;;;;;;;22.70;11.60;;;4.30;99.90;;;;;;4952740;28;20049;-83
2021/12/05 01:34:39;;;;;;;26.90;13.35;;;4.50;99.90;;;;;;4983980;28;20052;-84
2021/12/05 02:38:48;;;;;;;32.00;15.30;;;4.70;99.90;;;;;;4933058;28;20676;-84
2021/12/05 02:43:42;;;;;;;29.70;14.70;;;4.70;99.90;;;;;;4977051;28;20105;-84
2021/12/05 02:46:10;;;;;;;29.90;14.05;;;4.70;99.90;;;;;;4985561;28;20498;-84
2021/12/05 02:48:37;;;;;;;31.35;14.27;;;4.60;99.90;;;;;;4951101;28;20318;-85
2021/12/05 02:51:17;;;;;;;25.80;13.80;;;4.70;99.90;;;;;;4972953;28;20599;-84
2021/12/05 02:54:02;;;;;;;26.70;13.13;;;4.70;99.90;;;;;;4962027;28;20597;-84
2021/12/05 02:56:32;;;;;;;25.92;12.93;;;4.60;99.90;;;;;;4963202;28;20553;-85
2021/12/05 02:59:06;;;;;;;25.58;12.02;;;4.60;99.90;;;;;;4965176;28;20063;-84
2021/12/05 03:01:43;;;;;;;25.58;12.23;;;4.60;99.90;;;;;;4979331;28;20062;-84
2021/12/05 03:04:09;;;;;;;20.38;10.75;;;4.60;99.90;;;;;;4966233;28;20670;-84
2021/12/05 03:06:38;;;;;;;25.25;11.10;;;4.60;99.90;;;;;;4963169;28;20060;-84
2021/12/05 03:09:14;;;;;;;20.70;10.43;;;4.50;99.90;;;;;;4985959;28;20608;-85
2021/12/05 03:11:41;;;;;;;22.75;9.80;;;4.60;99.90;;;;;;4982493;28;20063;-84
2021/12/05 03:14:08;;;;;;;22.83;9.43;;;4.50;99.90;;;;;;4965748;28;20076;-84
2021/12/05 03:16:36;;;;;;;18.02;9.02;;;4.50;99.90;;;;;;4989156;28;20048;-84
2021/12/05 03:19:03;;;;;;;19.15;8.73;;;4.50;99.90;;;;;;4965384;28;20056;-85
2021/12/05 03:21:30;;;;;;;19.77;8.65;;;4.50;99.90;;;;;;4966070;28;20116;-85
2021/12/05 03:23:57;;;;;;;23.38;8.90;;;4.40;99.90;;;;;;4981636;28;20058;-84
2021/12/05 03:26:28;;;;;;;24.35;9.02;;;4.40;99.90;;;;;;4943307;28;20383;-83
2021/12/05 03:28:56;;;;;;;21.48;8.43;;;4.30;99.90;;;;;;4963277;28;20114;-83
2021/12/05 03:31:27;;;;;;;21.73;8.23;;;4.40;99.90;;;;;;4967669;28;20068;-84
2021/12/05 03:33:54;;;;;;;21.17;8.18;;;4.30;99.90;;;;;;4963093;28;20084;-84
2021/12/05 03:36:21;;;;;;;20.75;8.23;;;4.30;99.90;;;;;;4973515;28;20059;-83
2021/12/05 03:38:47;;;;;;;23.88;7.53;;;4.40;99.90;;;;;;4963047;28;20074;-85
2021/12/05 03:41:14;;;;;;;22.67;7.82;;;4.30;99.90;;;;;;4952649;28;20068;-85
2021/12/05 03:43:49;;;;;;;22.23;7.68;;;4.30;99.90;;;;;;4962895;28;20826;-84
2021/12/05 03:46:15;;;;;;;23.60;7.85;;;4.30;99.90;;;;;;4958287;28;20110;-85
2021/12/05 03:48:49;;;;;;;19.92;8.52;;;4.20;99.90;;;;;;4965550;28;20067;-84
2021/12/05 03:51:16;;;;;;;26.75;8.20;;;4.20;99.90;;;;;;4961957;28;20055;-84
2021/12/05 03:53:42;;;;;;;21.90;7.45;;;4.20;99.90;;;;;;4964319;28;20105;-84
2021/12/05 03:56:09;;;;;;;21.83;8.05;;;4.20;99.90;;;;;;4961390;28;20048;-84
2021/12/05 03:58:37;;;;;;;17.10;7.10;;;4.10;99.90;;;;;;4967693;28;20040;-84
2021/12/05 04:01:05;;;;;;;18.70;7.88;;;4.10;99.90;;;;;;4958339;28;20516;-84
2021/12/05 04:03:33;;;;;;;20.23;7.57;;;4.00;99.90;;;;;;4965320;28;20155;-84
2021/12/05 04:06:01;;;;;;;19.33;8.20;;;4.00;99.90;;;;;;4947096;28;20061;-83
2021/12/05 04:08:29;;;;;;;22.77;8.05;;;3.90;99.90;;;;;;4947540;28;20568;-84
2021/12/05 04:11:05;;;;;;;18.13;7.68;;;3.90;99.90;;;;;;4963692;28;20443;-84
2021/12/05 04:13:32;;;;;;;23.60;8.13;;;3.80;99.90;;;;;;4938321;28;20244;-84
2021/12/05 04:16:00;;;;;;;16.58;7.03;;;3.70;99.90;;;;;;4959495;28;20449;-84
2021/12/05 04:18:28;;;;;;;17.85;7.00;;;3.70;99.90;;;;;;4962261;28;20052;-84
2021/12/05 04:20:54;;;;;;;18.58;7.40;;;3.60;99.90;;;;;;4961000;28;20105;-84
2021/12/05 04:23:20;;;;;;;15.63;7.00;;;3.60;99.90;;;;;;4982088;28;20440;-84
2021/12/05 04:25:50;;;;;;;22.48;7.10;;;3.50;99.90;;;;;;4960340;28;20195;-83
2021/12/05 04:28:18;;;;;;;22.98;7.60;;;3.50;99.90;;;;;;4964587;28;20502;-84
2021/12/05 04:30:44;;;;;;;19.80;7.72;;;3.50;99.90;;;;;;4962741;28;20076;-83
2021/12/05 04:33:10;;;;;;;21.15;7.13;;;3.40;99.90;;;;;;4987878;28;20067;-84
2021/12/05 04:35:37;;;;;;;19.88;7.60;;;3.50;99.90;;;;;;4961530;28;20437;-84
2021/12/05 04:38:02;;;;;;;21.33;7.50;;;3.30;99.90;;;;;;4984030;28;20406;-84
2021/12/05 04:40:29;;;;;;;20.58;7.65;;;3.40;99.90;;;;;;4960659;28;20947;-83
2021/12/05 04:42:55;;;;;;;18.13;8.02;;;3.30;99.90;;;;;;4918738;28;20052;-83
2021/12/05 04:45:25;;;;;;;20.40;7.38;;;3.20;99.90;;;;;;4960635;28;20044;-84
2021/12/05 04:47:53;;;;;;;18.77;7.10;;;3.30;99.90;;;;;;4944735;28;20092;-83
2021/12/05 04:50:19;;;;;;;19.02;7.45;;;3.30;99.90;;;;;;4978666;28;20176;-83
2021/12/05 04:52:45;;;;;;;20.27;7.45;;;3.20;99.90;;;;;;4953224;28;20059;-83
2021/12/05 04:55:12;;;;;;;24.65;7.68;;;3.30;99.90;;;;;;4988971;28;20048;-84
2021/12/05 04:57:40;;;;;;;21.45;8.02;;;3.30;99.90;;;;;;4976820;28;20048;-83
2021/12/05 05:00:15;;;;;;;23.45;7.88;;;3.30;99.90;;;;;;4949488;28;20048;-84
2021/12/05 05:02:41;;;;;;;22.77;8.07;;;3.30;99.90;;;;;;4960005;28;20214;-84
2021/12/05 05:05:08;;;;;;;25.77;7.72;;;3.30;99.90;;;;;;4962273;28;20590;-83
2021/12/05 05:07:37;;;;;;;18.42;7.10;;;3.30;99.90;;;;;;4986733;28;20068;-84
2021/12/05 05:10:21;;;;;;;20.85;7.53;;;3.20;99.90;;;;;;4940804;28;20045;-83
2021/12/05 05:12:47;;;;;;;23.92;7.40;;;3.30;99.90;;;;;;4959237;28;20814;-84
2021/12/05 05:15:17;;;;;;;24.63;7.55;;;3.30;99.90;;;;;;4957044;28;20469;-84
2021/12/05 05:17:43;;;;;;;23.98;7.05;;;3.40;99.90;;;;;;4962217;28;21176;-84
2021/12/05 05:20:25;;;;;;;24.50;7.78;;;3.30;99.90;;;;;;4955996;28;20056;-84
2021/12/05 05:47:51;;;;;;;18.67;6.18;;;3.30;99.90;;;;;;4950750;28;20475;-84
2021/12/05 05:50:20;;;;;;;20.40;6.97;;;3.40;99.90;;;;;;4964994;28;20087;-83
2021/12/05 05:52:47;;;;;;;24.67;7.05;;;3.40;99.90;;;;;;4963520;28;20080;-83
2021/12/05 05:55:13;;;;;;;21.95;7.22;;;3.30;99.90;;;;;;4960774;28;20120;-83
2021/12/05 05:57:55;;;;;;;18.92;7.05;;;3.40;99.90;;;;;;4947911;28;20061;-84
2021/12/05 06:00:57;;;;;;;19.75;6.85;;;3.60;99.90;;;;;;4945950;28;20447;-83
2021/12/05 06:03:22;;;;;;;21.65;7.25;;;3.60;99.90;;;;;;4960863;28;20517;-83
2021/12/05 06:05:54;;;;;;;27.88;8.20;;;3.60;99.90;;;;;;4957859;28;20037;-84
2021/12/05 06:08:24;;;;;;;21.10;7.65;;;3.70;99.90;;;;;;4957482;28;20060;-83
2021/12/05 06:10:51;;;;;;;26.30;8.88;;;3.70;99.90;;;;;;4968409;28;20782;-85
2021/12/05 06:13:18;;;;;;;24.27;8.40;;;3.70;99.90;;;;;;4943458;28;20049;-83
2021/12/05 06:15:46;;;;;;;24.08;8.75;;;3.70;99.90;;;;;;4962319;28;20120;-84
2021/12/05 06:18:12;;;;;;;29.77;8.95;;;3.70;99.90;;;;;;4947363;28;21013;-83
2021/12/05 06:20:38;;;;;;;28.33;9.13;;;3.80;99.90;;;;;;4941507;28;20116;-83
2021/12/05 06:23:07;;;;;;;21.35;9.25;;;3.80;99.90;;;;;;4955528;28;20240;-83
2021/12/05 06:25:35;;;;;;;23.50;9.30;;;3.80;99.90;;;;;;4990014;28;20842;-83
2021/12/05 06:28:08;;;;;;;23.15;9.75;;;3.90;99.90;;;;;;4984947;28;20049;-83
2021/12/05 06:46:29;;;;;;;27.42;10.77;;;4.10;99.90;;;;;;4960858;28;20044;-83
2021/12/05 06:48:55;;;;;;;25.77;10.50;;;4.10;99.90;;;;;;4950570;28;20082;-83
2021/12/05 06:51:25;;;;;;;24.25;11.07;;;4.20;99.90;;;;;;4974319;28;20049;-84
2021/12/05 06:53:53;;;;;;;21.65;10.00;;;4.10;99.90;;;;;;4969729;28;20079;-83
2021/12/05 06:56:19;;;;;;;27.90;10.85;;;4.20;99.90;;;;;;4927391;28;20339;-83
2021/12/05 06:58:45;;;;;;;25.20;10.45;;;4.20;99.90;;;;;;4964395;28;20809;-84
2021/12/05 07:01:12;;;;;;;24.90;11.00;;;4.20;99.90;;;;;;4960566;28;20550;-83
2021/12/05 07:03:42;;;;;;;28.77;10.77;;;4.20;99.90;;;;;;4962151;28;20053;-84
2021/12/05 07:06:11;;;;;;;22.38;10.57;;;4.30;99.90;;;;;;4946086;28;20729;-84
2021/12/05 07:08:40;;;;;;;27.33;11.15;;;4.30;99.90;;;;;;4963060;28;20312;-84
2021/12/05 07:11:16;;;;;;;31.42;11.80;;;4.30;99.90;;;;;;4956317;28;20048;-84
2021/12/05 07:16:38;;;;;;;26.83;11.43;;;4.30;99.90;;;;;;4961778;28;20044;-83
2021/12/05 07:19:31;;;;;;;19.90;9.95;;;4.40;99.90;;;;;;4959157;28;20811;-84
2021/12/05 07:22:01;;;;;;;20.92;10.65;;;4.40;99.90;;;;;;4960939;28;20055;-84
2021/12/05 07:40:35;;;;;;;24.63;10.70;;;4.50;99.90;;;;;;4974575;28;20130;-82
2021/12/05 07:43:08;;;;;;;26.80;10.43;;;4.60;99.90;;;;;;4945039;28;20399;-83
2021/12/05 07:45:47;;;;;;;21.98;9.93;;;4.60;99.90;;;;;;4960191;28;20123;-84
2021/12/05 07:48:21;;;;;;;23.38;10.00;;;4.60;99.90;;;;;;4970114;28;20581;-84
2021/12/05 07:53:38;;;;;;;19.30;9.98;;;4.60;99.90;;;;;;4966166;28;20052;-84
2021/12/05 07:56:12;;;;;;;21.95;10.05;;;4.60;99.90;;;;;;4960049;28;20080;-83
2021/12/05 08:15:10;;;;;;;26.25;10.00;;;4.70;99.90;;;;;;4960483;28;20135;-84
2021/12/05 08:17:36;;;;;;;24.40;9.63;;;4.80;99.90;;;;;;4984717;28;20066;-83
2021/12/05 08:20:04;;;;;;;27.52;9.77;;;4.90;99.90;;;;;;4986713;28;20148;-83
2021/12/05 08:22:30;;;;;;;19.67;8.57;;;4.90;99.90;;;;;;4981231;28;20378;-84
2021/12/05 08:25:00;;;;;;;32.28;9.77;;;4.80;99.90;;;;;;4967893;28;20052;-84
2021/12/05 08:27:26;;;;;;;19.48;8.65;;;4.90;99.90;;;;;;4956279;28;20541;-84
2021/12/05 08:29:56;;;;;;;20.60;9.48;;;4.90;99.90;;;;;;4962125;28;20089;-84
2021/12/05 09:24:38;;;;;;;19.92;8.55;;;5.20;99.90;;;;;;4972529;28;20586;-86
2021/12/05 10:07:16;;;;;;;15.15;7.22;;;5.30;99.90;;;;;;4963917;28;20750;-85
2021/12/05 10:26:42;;;;;;;19.92;8.02;;;5.40;99.90;;;;;;4960817;28;20135;-83
2021/12/05 10:38:07;;;;;;;21.70;7.95;;;5.60;99.90;;;;;;4962666;28;20226;-85
2021/12/05 10:41:00;;;;;;;16.70;7.03;;;5.70;99.90;;;;;;4958905;28;20121;-84
2021/12/05 10:43:28;;;;;;;15.57;6.85;;;5.60;99.90;;;;;;4976954;28;20067;-85
2021/12/05 10:46:07;;;;;;;17.90;7.38;;;5.80;99.90;;;;;;4945863;28;20134;-84
2021/12/05 10:48:42;;;;;;;14.88;6.90;;;5.80;99.90;;;;;;4974814;28;20044;-84
2021/12/05 10:51:12;;;;;;;18.45;7.13;;;5.90;99.90;;;;;;4977519;28;20228;-85
2021/12/05 10:53:40;;;;;;;15.02;6.97;;;6.00;99.90;;;;;;4954237;28;20102;-85
2021/12/05 10:56:11;;;;;;;17.00;7.18;;;6.10;99.90;;;;;;4954234;28;20048;-84
2021/12/05 10:58:42;;;;;;;12.05;6.50;;;6.20;99.90;;;;;;4960896;28;20274;-85
2021/12/05 11:01:33;;;;;;;11.95;6.43;;;6.20;99.90;;;;;;4983452;28;20048;-85
2021/12/05 11:04:14;;;;;;;13.85;6.30;;;6.30;99.90;;;;;;4964051;28;20067;-86
2021/12/05 11:06:49;;;;;;;12.75;6.20;;;6.30;99.90;;;;;;4962391;28;20041;-85
2021/12/05 11:09:36;;;;;;;11.85;6.05;;;6.40;99.90;;;;;;4983467;28;20079;-85
2021/12/05 11:12:04;;;;;;;12.15;5.63;;;6.40;99.90;;;;;;4959143;28;20701;-86
2021/12/05 11:14:32;;;;;;;11.70;5.60;;;6.40;99.90;;;;;;4954976;28;20421;-86
2021/12/05 11:17:18;;;;;;;13.98;5.93;;;6.40;99.90;;;;;;4956695;28;20297;-85
2021/12/05 11:19:48;;;;;;;10.70;5.75;;;6.40;99.90;;;;;;4956751;28;20743;-85
2021/12/05 11:22:32;;;;;;;11.02;5.28;;;6.40;99.90;;;;;;4948054;28;20561;-85
2021/12/05 11:25:04;;;;;;;10.90;5.85;;;6.40;99.90;;;;;;4974456;28;20989;-86
2021/12/05 11:27:40;;;;;;;11.20;5.07;;;6.50;99.90;;;;;;4974365;28;20095;-85
2021/12/05 11:30:17;;;;;;;13.98;5.55;;;6.30;99.90;;;;;;4946706;28;20318;-83
2021/12/05 11:32:48;;;;;;;10.77;5.28;;;6.30;99.90;;;;;;4957903;28;20055;-85
2021/12/05 11:35:32;;;;;;;13.77;5.55;;;6.30;99.90;;;;;;4965367;28;20131;-85
2021/12/05 11:38:00;;;;;;;11.27;4.93;;;6.30;99.90;;;;;;4966801;28;20155;-85
2021/12/05 11:40:41;;;;;;;16.92;5.60;;;6.20;99.90;;;;;;4978273;28;20052;-84
2021/12/05 11:43:08;;;;;;;11.32;5.13;;;6.20;99.90;;;;;;4987452;28;20123;-86
2021/12/05 11:45:55;;;;;;;10.68;5.22;;;6.30;99.90;;;;;;4972850;28;20043;-85
2021/12/05 11:48:41;;;;;;;10.50;5.20;;;6.30;99.90;;;;;;5006466;28;20952;-85
2021/12/05 11:51:22;;;;;;;11.07;5.00;;;6.20;99.90;;;;;;4989563;28;20088;-85
2021/12/05 11:53:56;;;;;;;10.18;4.75;;;6.30;99.90;;;;;;5000498;28;20428;-88
2021/12/05 11:56:42;;;;;;;9.30;4.55;;;6.20;99.90;;;;;;4983216;28;20119;-85
2021/12/05 11:59:19;;;;;;;9.68;4.80;;;6.20;99.90;;;;;;4978565;28;20084;-86
2021/12/05 12:01:53;;;;;;;7.57;4.30;;;6.30;99.90;;;;;;4996671;28;20048;-85
2021/12/05 12:04:24;;;;;;;8.60;4.10;;;6.30;99.90;;;;;;4987988;28;20044;-85
2021/12/05 12:07:10;;;;;;;9.15;4.18;;;6.30;99.90;;;;;;4984653;28;20060;-86
2021/12/05 12:09:36;;;;;;;9.27;4.45;;;6.20;99.90;;;;;;4969596;28;20633;-84
2021/12/05 12:12:02;;;;;;;8.88;4.40;;;6.30;99.90;;;;;;4980927;28;20823;-85
2021/12/05 12:14:28;;;;;;;7.93;4.55;;;6.20;99.90;;;;;;4984137;28;20166;-86
2021/12/05 12:16:56;;;;;;;10.40;4.80;;;6.30;99.90;;;;;;4982937;28;20041;-85
2021/12/05 12:19:23;;;;;;;8.13;4.90;;;6.30;99.90;;;;;;4968907;28;20052;-85
2021/12/05 12:21:52;;;;;;;10.85;4.53;;;6.20;99.90;;;;;;4976812;28;20068;-85
2021/12/05 12:24:18;;;;;;;8.70;4.13;;;6.10;99.90;;;;;;4966978;28;20059;-85
2021/12/05 12:26:45;;;;;;;10.02;4.70;;;6.10;99.90;;;;;;4964041;28;21012;-86
2021/12/05 12:29:13;;;;;;;8.07;4.50;;;6.10;99.90;;;;;;4952652;28;20247;-85
2021/12/05 12:31:42;;;;;;;7.78;3.90;;;6.10;99.90;;;;;;4968396;28;20080;-86
2021/12/05 12:34:13;;;;;;;9.15;4.95;;;5.90;99.90;;;;;;4949290;28;20128;-87
2021/12/05 12:36:52;;;;;;;10.02;4.70;;;5.90;99.90;;;;;;4972713;28;20563;-86
2021/12/05 12:39:20;;;;;;;10.00;4.85;;;6.00;99.90;;;;;;4975232;28;20130;-86
2021/12/05 12:42:13;;;;;;;12.80;5.60;;;6.00;99.90;;;;;;4997041;28;20056;-85
2021/12/05 12:45:17;;;;;;;7.95;5.03;;;6.10;99.90;;;;;;4959014;28;20062;-85
2021/12/05 12:47:50;;;;;;;10.98;5.20;;;6.10;99.90;;;;;;4958664;28;20429;-84
2021/12/05 12:50:35;;;;;;;9.73;5.32;;;6.20;99.90;;;;;;4970970;28;20044;-84
2021/12/05 12:53:12;;;;;;;12.10;5.15;;;6.30;99.90;;;;;;4948732;28;20171;-84
2021/12/05 12:55:44;;;;;;;9.82;5.22;;;6.20;99.90;;;;;;4964502;28;20831;-85
2021/12/05 12:58:11;;;;;;;11.02;5.20;;;6.30;99.90;;;;;;4971466;28;20507;-84
2021/12/05 13:00:43;;;;;;;10.23;4.93;;;6.30;99.90;;;;;;4957699;28;20542;-86
2021/12/05 13:03:25;;;;;;;8.43;4.53;;;6.20;99.90;;;;;;4974018;28;20051;-84
2021/12/05 13:11:54;;;;;;;34.75;6.18;;;6.20;99.90;;;;;;4989521;28;21287;-85
2021/12/05 13:14:20;;;;;;;19.95;5.20;;;6.20;99.90;;;;;;4974683;28;20591;-86
2021/12/05 13:16:48;;;;;;;10.05;4.28;;;6.20;99.90;;;;;;4975532;28;20127;-85
2021/12/05 13:19:22;;;;;;;8.48;4.60;;;6.10;99.90;;;;;;4997075;28;20042;-87
2021/12/05 13:21:52;;;;;;;8.52;4.40;;;6.20;99.90;;;;;;4959833;28;20053;-86
2021/12/05 13:24:42;;;;;;;8.57;4.57;;;6.20;99.90;;;;;;4977220;28;20127;-86
2021/12/05 13:27:24;;;;;;;8.27;4.65;;;6.20;99.90;;;;;;4975147;28;20053;-85
2021/12/05 13:29:56;;;;;;;9.77;4.80;;;6.30;99.90;;;;;;4964314;28;20049;-85
2021/12/05 13:32:30;;;;;;;9.15;4.57;;;6.40;99.90;;;;;;4979559;28;20093;-85
2021/12/05 13:35:02;;;;;;;11.38;5.35;;;6.30;99.90;;;;;;4971836;28;20076;-85
2021/12/05 13:37:35;;;;;;;11.85;5.25;;;6.40;99.90;;;;;;4980553;28;20198;-85
2021/12/05 13:40:11;;;;;;;10.68;5.15;;;6.40;99.90;;;;;;4971672;28;20118;-85
2021/12/05 13:42:42;;;;;;;9.05;4.60;;;6.40;99.90;;;;;;4974235;28;20056;-85
2021/12/05 13:45:13;;;;;;;9.35;5.00;;;6.30;99.90;;;;;;4969895;28;20122;-86
2021/12/05 13:47:41;;;;;;;10.13;5.00;;;6.30;99.90;;;;;;4993196;28;20052;-86
2021/12/05 13:50:22;;;;;;;8.90;4.30;;;6.40;99.90;;;;;;4972167;28;20107;-86
2021/12/05 13:53:17;;;;;;;14.15;4.55;;;6.30;99.90;;;;;;4978208;28;20850;-86
2021/12/05 13:56:26;;;;;;;12.80;4.30;;;6.20;99.90;;;;;;4944473;28;20998;-86
2021/12/05 13:58:49;;;;;;;10.00;4.90;;;6.20;99.90;;;;;;4974073;28;20171;-86
2021/12/05 14:01:32;;;;;;;9.85;4.35;;;6.20;99.90;;;;;;4979624;28;20045;-85
2021/12/05 14:04:26;;;;;;;26.17;5.53;;;6.10;99.90;;;;;;4985610;28;20626;-85
2021/12/05 14:07:01;;;;;;;9.52;4.38;;;6.10;99.90;;;;;;4972255;28;20059;-85
2021/12/05 14:09:35;;;;;;;9.52;4.80;;;6.00;99.90;;;;;;4980654;28;21062;-86
2021/12/05 14:12:24;;;;;;;11.13;5.50;;;6.10;99.90;;;;;;4999855;28;20053;-84
2021/12/05 14:15:02;;;;;;;9.35;5.55;;;6.00;99.90;;;;;;4976512;28;20057;-84
2021/12/05 14:17:44;;;;;;;11.85;6.15;;;6.00;99.90;;;;;;4980378;28;20394;-85
2021/12/05 14:20:25;;;;;;;9.20;5.47;;;6.00;99.90;;;;;;4969342;28;20045;-85
2021/12/05 14:22:52;;;;;;;14.55;6.15;;;5.90;99.90;;;;;;4961298;28;20084;-85
2021/12/05 14:25:20;;;;;;;12.60;6.43;;;5.90;99.90;;;;;;4970757;28;20526;-85
2021/12/05 14:27:52;;;;;;;9.88;6.00;;;5.90;99.90;;;;;;4970935;28;20059;-86
2021/12/05 14:30:21;;;;;;;11.82;5.93;;;5.80;99.90;;;;;;4971328;28;20120;-87
2021/12/05 14:32:52;;;;;;;9.90;5.93;;;5.90;99.90;;;;;;4982896;28;20079;-84
2021/12/05 14:35:21;;;;;;;8.57;5.93;;;5.90;99.90;;;;;;4992570;28;20052;-86
2021/12/05 14:37:49;;;;;;;20.90;6.82;;;5.80;99.90;;;;;;4963082;28;20053;-84
2021/12/05 14:40:19;;;;;;;11.23;6.03;;;5.80;99.90;;;;;;4978310;28;20049;-85
2021/12/05 14:42:48;;;;;;;10.30;6.07;;;5.80;99.90;;;;;;4967017;28;20899;-84
2021/12/05 14:45:23;;;;;;;11.20;6.10;;;5.70;99.90;;;;;;4979940;28;20112;-85
2021/12/05 14:47:51;;;;;;;9.75;6.20;;;5.70;99.90;;;;;;4965607;28;20402;-85
2021/12/05 14:50:26;;;;;;;9.52;6.40;;;5.80;99.90;;;;;;4961278;28;20060;-85
2021/12/05 14:52:57;;;;;;;10.75;6.18;;;5.80;99.90;;;;;;4972782;28;20717;-86
2021/12/05 14:55:27;;;;;;;9.57;6.03;;;5.70;99.90;;;;;;4966880;28;20053;-85
2021/12/05 14:57:56;;;;;;;10.45;6.50;;;5.70;99.90;;;;;;4973336;28;20624;-85
2021/12/05 15:00:30;;;;;;;9.63;6.10;;;5.70;99.90;;;;;;4973729;28;20478;-85
2021/12/05 15:03:05;;;;;;;9.77;6.25;;;5.70;99.90;;;;;;4967138;28;20499;-86
2021/12/05 15:05:32;;;;;;;9.30;6.85;;;5.60;99.90;;;;;;4975718;28;20056;-85
2021/12/05 15:08:20;;;;;;;10.93;6.47;;;5.60;99.90;;;;;;4981442;28;20052;-85
2021/12/05 15:10:51;;;;;;;11.88;6.88;;;5.60;99.90;;;;;;4987193;28;20122;-84
2021/12/05 15:13:17;;;;;;;10.32;6.78;;;5.50;99.90;;;;;;4974668;28;20743;-85
2021/12/05 15:15:45;;;;;;;77.30;11.98;;;5.50;99.90;;;;;;4964163;28;20051;-87
2021/12/05 15:18:19;;;;;;;12.60;8.20;;;5.50;99.90;;;;;;4952355;28;20701;-85
2021/12/05 15:20:46;;;;;;;15.30;8.38;;;5.50;99.90;;;;;;4968111;28;20044;-86
2021/12/05 15:23:14;;;;;;;12.00;9.05;;;5.50;99.90;;;;;;4964416;28;20127;-85
2021/12/05 15:25:41;;;;;;;25.77;10.27;;;5.40;99.90;;;;;;4969361;28;20320;-86
2021/12/05 15:28:09;;;;;;;11.27;9.23;;;5.50;99.90;;;;;;4994264;28;20052;-86
2021/12/05 15:30:38;;;;;;;12.73;9.90;;;5.40;99.90;;;;;;4971278;28;20056;-85
2021/12/05 15:33:11;;;;;;;12.90;11.15;;;5.40;99.90;;;;;;4993044;28;20048;-85
2021/12/05 15:35:37;;;;;;;15.55;11.43;;;5.40;99.90;;;;;;4968276;28;20882;-87
2021/12/05 15:38:10;;;;;;;12.57;10.32;;;5.30;99.90;;;;;;4985634;28;20052;-86
2021/12/05 15:40:40;;;;;;;13.48;11.25;;;5.30;99.90;;;;;;4982770;28;20044;-86
2021/12/05 15:43:10;;;;;;;12.88;11.48;;;5.30;99.90;;;;;;4971522;28;20855;-86
2021/12/05 15:45:38;;;;;;;17.90;11.52;;;5.30;99.90;;;;;;4966212;28;20430;-85
2021/12/05 15:48:05;;;;;;;13.68;11.40;;;5.30;99.90;;;;;;4970285;28;20645;-85
2021/12/05 15:50:33;;;;;;;14.07;11.30;;;5.20;99.90;;;;;;4956293;28;20121;-84
2021/12/05 15:53:05;;;;;;;13.60;10.73;;;5.20;99.90;;;;;;4993758;28;20887;-84
2021/12/05 15:55:35;;;;;;;15.18;11.70;;;5.20;99.90;;;;;;4956802;28;20109;-83
2021/12/05 15:58:10;;;;;;;18.58;12.07;;;5.20;99.90;;;;;;4974898;28;20114;-83
2021/12/05 16:00:44;;;;;;;15.07;11.68;;;5.20;99.90;;;;;;4991011;28;20063;-85
2021/12/05 16:03:16;;;;;;;14.85;12.07;;;5.20;99.90;;;;;;4974294;28;20590;-84
2021/12/05 16:05:44;;;;;;;17.33;12.45;;;5.20;99.90;;;;;;4982138;28;20879;-85
2021/12/05 16:08:16;;;;;;;13.88;11.80;;;5.20;99.90;;;;;;4966846;28;21176;-84
2021/12/05 16:10:49;;;;;;;15.93;12.00;;;5.10;99.90;;;;;;4961503;28;20390;-85
2021/12/05 16:13:19;;;;;;;22.15;13.68;;;5.10;99.90;;;;;;4962589;28;20045;-83
2021/12/05 16:16:06;;;;;;;31.27;13.15;;;5.30;99.90;;;;;;4958214;28;20862;-83
2021/12/05 16:18:35;;;;;;;38.53;13.80;;;5.20;99.90;;;;;;4954339;28;20385;-85
2021/12/05 16:21:05;;;;;;;34.80;13.27;;;5.20;99.90;;;;;;4964138;28;20320;-84
2021/12/05 16:23:37;;;;;;;20.70;12.43;;;5.30;99.90;;;;;;4966125;28;20520;-85
2021/12/05 16:26:12;;;;;;;19.45;14.18;;;5.20;99.90;;;;;;4948515;28;20507;-86
2021/12/05 16:28:43;;;;;;;17.58;13.40;;;5.20;99.90;;;;;;4967394;28;20060;-86
2021/12/05 16:31:17;;;;;;;17.48;12.98;;;5.10;99.90;;;;;;4960635;28;20348;-85
2021/12/05 16:33:47;;;;;;;18.38;13.35;;;5.10;99.90;;;;;;4962992;28;20554;-85
2021/12/05 16:36:14;;;;;;;18.90;13.38;;;5.10;99.90;;;;;;4960084;28;20045;-85
2021/12/05 16:38:43;;;;;;;48.85;15.35;;;5.10;99.90;;;;;;4957115;28;20502;-85
2021/12/05 16:41:13;;;;;;;30.55;14.68;;;5.10;99.90;;;;;;4963519;28;20402;-85
2021/12/05 16:43:50;;;;;;;27.27;14.30;;;5.20;99.90;;;;;;4962240;28;21248;-85
2021/12/05 16:46:33;;;;;;;19.55;13.18;;;5.10;99.90;;;;;;4961551;28;20522;-85
2021/12/05 16:49:02;;;;;;;36.03;15.43;;;5.10;99.90;;;;;;4949707;28;20434;-85
2021/12/05 16:51:42;;;;;;;25.30;13.13;;;5.10;99.90;;;;;;4952081;28;20445;-85
2021/12/05 16:54:17;;;;;;;15.48;13.18;;;5.10;99.90;;;;;;4952243;28;20479;-85
2021/12/05 16:57:09;;;;;;;18.25;13.55;;;5.00;99.90;;;;;;4961890;28;20795;-85
2021/12/05 16:59:53;;;;;;;19.58;13.52;;;5.00;99.90;;;;;;4964917;28;20148;-84
2021/12/05 17:02:21;;;;;;;21.67;13.85;;;5.00;99.90;;;;;;4962293;28;20620;-85
2021/12/05 17:04:59;;;;;;;43.92;15.95;;;5.10;99.90;;;;;;4968187;28;20065;-85
2021/12/05 17:07:48;;;;;;;49.55;16.60;;;5.10;99.90;;;;;;4957542;28;20061;-85
2021/12/05 17:10:20;;;;;;;28.75;15.48;;;5.10;99.90;;;;;;4963758;28;20233;-85
2021/12/05 17:12:48;;;;;;;26.67;15.13;;;5.10;99.90;;;;;;4961633;28;20043;-85
2021/12/05 17:15:17;;;;;;;23.08;16.67;;;5.00;99.90;;;;;;4970519;28;20193;-86
2021/12/05 17:17:48;;;;;;;20.10;15.98;;;5.10;99.90;;;;;;4970243;28;20052;-85
2021/12/05 17:20:21;;;;;;;26.15;16.38;;;5.10;99.90;;;;;;4966142;28;20537;-85
2021/12/05 17:22:56;;;;;;;26.02;16.27;;;5.10;99.90;;;;;;4959053;28;20565;-85
2021/12/05 17:25:32;;;;;;;23.20;16.38;;;5.20;99.90;;;;;;4965257;28;20150;-85
2021/12/05 17:27:59;;;;;;;31.10;17.90;;;5.20;99.90;;;;;;4960194;28;20051;-85
2021/12/05 17:30:25;;;;;;;30.77;17.50;;;5.30;99.90;;;;;;4961097;28;20049;-85
2021/12/05 17:32:51;;;;;;;35.13;19.33;;;5.30;99.90;;;;;;4945435;28;20079;-85
2021/12/05 17:35:17;;;;;;;30.83;19.88;;;5.20;99.90;;;;;;4951497;28;20052;-85
2021/12/05 17:37:45;;;;;;;30.30;19.63;;;5.20;99.90;;;;;;4971746;28;20537;-85
2021/12/05 17:40:13;;;;;;;33.88;20.70;;;5.30;99.90;;;;;;4986306;28;20451;-85
2021/12/05 17:42:39;;;;;;;45.67;20.58;;;5.20;99.90;;;;;;4973249;28;20416;-86
2021/12/05 17:45:09;;;;;;;45.10;20.70;;;5.30;99.90;;;;;;4967289;28;20409;-85
2021/12/05 17:47:35;;;;;;;35.28;20.50;;;5.20;99.90;;;;;;4952167;28;20140;-85
2021/12/05 17:50:06;;;;;;;28.33;20.10;;;5.30;99.90;;;;;;4934111;28;20212;-85
2021/12/05 17:52:32;;;;;;;31.02;20.20;;;5.20;99.90;;;;;;4968775;28;20310;-85
2021/12/05 17:55:10;;;;;;;28.08;20.25;;;5.30;99.90;;;;;;4961005;28;20782;-85
2021/12/05 17:57:41;;;;;;;30.30;20.13;;;5.10;99.90;;;;;;4985399;28;20040;-85
2021/12/05 18:00:35;;;;;;;35.70;19.90;;;5.20;99.90;;;;;;4968331;28;20435;-86
2021/12/05 18:03:05;;;;;;;40.72;21.48;;;5.20;99.90;;;;;;4968506;28;20465;-85
2021/12/05 18:05:40;;;;;;;36.65;20.85;;;5.20;99.90;;;;;;4969744;28;20044;-85
2021/12/05 18:08:10;;;;;;;29.27;19.92;;;5.30;99.90;;;;;;4965422;28;20548;-85
2021/12/05 18:10:39;;;;;;;26.83;18.75;;;5.20;99.90;;;;;;4985705;28;20052;-85
2021/12/05 18:13:10;;;;;;;29.58;20.70;;;5.20;99.90;;;;;;5004816;28;20129;-85
2021/12/05 18:15:37;;;;;;;34.03;20.48;;;5.20;99.90;;;;;;4979079;28;20422;-85
2021/12/05 18:18:05;;;;;;;27.20;20.48;;;5.20;99.90;;;;;;4968539;28;20063;-85
2021/12/05 18:20:34;;;;;;;28.60;20.65;;;5.20;99.90;;;;;;4968380;28;20090;-85
2021/12/05 18:23:03;;;;;;;33.30;21.77;;;5.20;99.90;;;;;;4976070;28;20052;-85
2021/12/05 18:25:30;;;;;;;28.98;21.10;;;5.30;99.90;;;;;;4976693;28;20493;-85
2021/12/05 18:27:57;;;;;;;33.35;21.85;;;5.30;99.90;;;;;;4959771;28;20586;-85
2021/12/05 18:30:24;;;;;;;35.60;24.35;;;5.30;99.90;;;;;;4973097;28;20181;-85
2021/12/05 18:32:52;;;;;;;35.20;23.60;;;5.40;99.90;;;;;;4970618;28;20484;-84
2021/12/05 18:35:18;;;;;;;33.30;23.27;;;5.30;99.90;;;;;;4976416;28;20048;-85
2021/12/05 18:37:45;;;;;;;65.38;25.00;;;5.40;99.90;;;;;;4983157;28;20133;-85
2021/12/05 18:40:12;;;;;;;53.47;24.92;;;5.40;99.90;;;;;;4977885;28;20846;-84